sensor_id;sensor_type;location;lat;lon;timestamp;P1;durP1;ratioP1;P2;durP2;ratioP2
59766;SDS011;46248;58.364;25.582;2023-01-16T00:00:00;10.43;;;4.90;;
59766;SDS011;46248;58.364;25.582;2023-01-16T00:03:24;7.25;;;4.95;;
59766;SDS011;46248;58.364;25.582;2023-01-16T00:06:46;6.68;;;3.90;;
59766;SDS011;46248;58.364;25.582;2023-01-16T00:10:08;7.65;;;4.72;;
59766;SDS011;46248;58.364;25.582;2023-01-16T00:13:32;5.50;;;3.67;;
59766;SDS011;46248;58.364;25.582;2023-01-16T00:16:54;6.85;;;4.28;;
59766;SDS011;46248;58.364;25.582;2023-01-16T00:20:17;7.65;;;4.80;;
59766;SDS011;46248;58.364;25.582;2023-01-16T00:23:39;8.13;;;4.53;;
59766;SDS011;46248;58.364;25.582;2023-01-16T00:27:01;5.63;;;3.47;;
59766;SDS011;46248;58.364;25.582;2023-01-16T00:30:23;5.03;;;3.38;;
59766;SDS011;46248;58.364;25.582;2023-01-16T00:33:45;5.38;;;3.47;;
59766;SDS011;46248;58.364;25.582;2023-01-16T00:37:08;10.05;;;5.43;;
59766;SDS011;46248;58.364;25.582;2023-01-16T00:40:30;7.38;;;4.47;;
59766;SDS011;46248;58.364;25.582;2023-01-16T00:43:52;5.88;;;4.40;;
59766;SDS011;46248;58.364;25.582;2023-01-16T00:47:16;6.95;;;4.03;;
59766;SDS011;46248;58.364;25.582;2023-01-16T00:50:38;8.50;;;3.65;;
59766;SDS011;46248;58.364;25.582;2023-01-16T00:54:02;6.55;;;3.45;;
59766;SDS011;46248;58.364;25.582;2023-01-16T00:57:24;5.40;;;3.08;;
59766;SDS011;46248;58.364;25.582;2023-01-16T01:00:46;3.35;;;2.50;;
59766;SDS011;46248;58.364;25.582;2023-01-16T01:04:07;6.72;;;2.80;;
59766;SDS011;46248;58.364;25.582;2023-01-16T01:07:29;4.65;;;3.13;;
59766;SDS011;46248;58.364;25.582;2023-01-16T01:10:53;4.82;;;2.90;;
59766;SDS011;46248;58.364;25.582;2023-01-16T01:14:15;6.32;;;3.53;;
59766;SDS011;46248;58.364;25.582;2023-01-16T01:17:37;6.28;;;3.10;;
59766;SDS011;46248;58.364;25.582;2023-01-16T01:20:59;6.68;;;3.22;;
59766;SDS011;46248;58.364;25.582;2023-01-16T01:24:21;5.30;;;2.90;;
59766;SDS011;46248;58.364;25.582;2023-01-16T01:27:45;5.28;;;2.90;;
59766;SDS011;46248;58.364;25.582;2023-01-16T01:31:07;5.72;;;3.38;;
59766;SDS011;46248;58.364;25.582;2023-01-16T01:34:30;4.72;;;3.00;;
59766;SDS011;46248;58.364;25.582;2023-01-16T01:37:54;6.82;;;2.63;;
59766;SDS011;46248;58.364;25.582;2023-01-16T01:41:16;5.05;;;2.63;;
59766;SDS011;46248;58.364;25.582;2023-01-16T01:44:46;5.63;;;3.35;;
59766;SDS011;46248;58.364;25.582;2023-01-16T01:48:17;4.57;;;2.35;;
59766;SDS011;46248;58.364;25.582;2023-01-16T01:51:44;4.95;;;3.08;;
59766;SDS011;46248;58.364;25.582;2023-01-16T01:55:07;5.88;;;3.50;;
59766;SDS011;46248;58.364;25.582;2023-01-16T01:58:32;4.32;;;3.05;;
59766;SDS011;46248;58.364;25.582;2023-01-16T02:01:56;7.07;;;3.03;;
59766;SDS011;46248;58.364;25.582;2023-01-16T02:05:21;8.82;;;3.90;;
59766;SDS011;46248;58.364;25.582;2023-01-16T02:08:47;8.98;;;4.35;;
59766;SDS011;46248;58.364;25.582;2023-01-16T02:12:14;7.82;;;3.70;;
59766;SDS011;46248;58.364;25.582;2023-01-16T02:15:38;6.47;;;3.28;;
59766;SDS011;46248;58.364;25.582;2023-01-16T02:19:25;6.32;;;4.18;;
59766;SDS011;46248;58.364;25.582;2023-01-16T02:23:02;6.28;;;3.85;;
59766;SDS011;46248;58.364;25.582;2023-01-16T02:26:52;9.18;;;3.47;;
59766;SDS011;46248;58.364;25.582;2023-01-16T02:30:35;5.32;;;3.38;;
59766;SDS011;46248;58.364;25.582;2023-01-16T02:34:22;6.05;;;3.00;;
59766;SDS011;46248;58.364;25.582;2023-01-16T02:37:58;7.60;;;3.53;;
59766;SDS011;46248;58.364;25.582;2023-01-16T02:41:26;5.63;;;2.65;;
59766;SDS011;46248;58.364;25.582;2023-01-16T02:45:02;3.25;;;2.20;;
59766;SDS011;46248;58.364;25.582;2023-01-16T02:48:31;2.75;;;1.98;;
59766;SDS011;46248;58.364;25.582;2023-01-16T02:52:03;4.35;;;2.08;;
59766;SDS011;46248;58.364;25.582;2023-01-16T02:55:33;3.22;;;1.63;;
59766;SDS011;46248;58.364;25.582;2023-01-16T02:58:59;4.72;;;2.00;;
59766;SDS011;46248;58.364;25.582;2023-01-16T03:02:21;4.28;;;2.17;;
59766;SDS011;46248;58.364;25.582;2023-01-16T03:05:43;2.80;;;1.98;;
59766;SDS011;46248;58.364;25.582;2023-01-16T03:13:06;3.15;;;2.17;;
59766;SDS011;46248;58.364;25.582;2023-01-16T03:16:41;3.95;;;2.30;;
59766;SDS011;46248;58.364;25.582;2023-01-16T03:20:18;3.83;;;2.15;;
59766;SDS011;46248;58.364;25.582;2023-01-16T03:23:50;3.55;;;2.53;;
59766;SDS011;46248;58.364;25.582;2023-01-16T03:27:17;3.50;;;1.92;;
59766;SDS011;46248;58.364;25.582;2023-01-16T03:30:50;5.25;;;2.40;;
59766;SDS011;46248;58.364;25.582;2023-01-16T03:34:15;4.22;;;2.55;;
59766;SDS011;46248;58.364;25.582;2023-01-16T03:37:44;3.30;;;2.15;;
59766;SDS011;46248;58.364;25.582;2023-01-16T03:41:08;4.25;;;1.98;;
59766;SDS011;46248;58.364;25.582;2023-01-16T03:44:35;5.65;;;2.30;;
59766;SDS011;46248;58.364;25.582;2023-01-16T03:48:02;6.88;;;2.15;;
59766;SDS011;46248;58.364;25.582;2023-01-16T03:51:28;5.97;;;2.17;;
59766;SDS011;46248;58.364;25.582;2023-01-16T03:54:55;3.83;;;2.08;;
59766;SDS011;46248;58.364;25.582;2023-01-16T03:58:24;4.22;;;1.60;;
59766;SDS011;46248;58.364;25.582;2023-01-16T04:01:53;4.35;;;2.00;;
59766;SDS011;46248;58.364;25.582;2023-01-16T04:05:17;4.85;;;2.03;;
59766;SDS011;46248;58.364;25.582;2023-01-16T04:08:42;6.32;;;2.47;;
59766;SDS011;46248;58.364;25.582;2023-01-16T04:12:06;3.35;;;2.08;;
59766;SDS011;46248;58.364;25.582;2023-01-16T04:15:31;3.60;;;1.98;;
59766;SDS011;46248;58.364;25.582;2023-01-16T04:18:56;3.13;;;2.28;;
59766;SDS011;46248;58.364;25.582;2023-01-16T04:22:22;8.40;;;2.78;;
59766;SDS011;46248;58.364;25.582;2023-01-16T04:25:46;3.05;;;2.28;;
59766;SDS011;46248;58.364;25.582;2023-01-16T04:29:08;2.40;;;1.83;;
59766;SDS011;46248;58.364;25.582;2023-01-16T04:32:29;5.07;;;2.03;;
59766;SDS011;46248;58.364;25.582;2023-01-16T04:35:53;3.05;;;2.53;;
59766;SDS011;46248;58.364;25.582;2023-01-16T04:39:14;5.97;;;2.78;;
59766;SDS011;46248;58.364;25.582;2023-01-16T04:42:35;3.78;;;2.30;;
59766;SDS011;46248;58.364;25.582;2023-01-16T04:45:57;4.53;;;2.60;;
59766;SDS011;46248;58.364;25.582;2023-01-16T04:49:19;4.10;;;3.25;;
59766;SDS011;46248;58.364;25.582;2023-01-16T04:52:42;5.53;;;2.78;;
59766;SDS011;46248;58.364;25.582;2023-01-16T04:56:05;3.83;;;2.65;;
59766;SDS011;46248;58.364;25.582;2023-01-16T04:59:27;5.65;;;3.55;;
59766;SDS011;46248;58.364;25.582;2023-01-16T05:02:49;6.28;;;3.28;;
59766;SDS011;46248;58.364;25.582;2023-01-16T05:06:11;4.35;;;3.05;;
59766;SDS011;46248;58.364;25.582;2023-01-16T05:09:34;6.00;;;3.40;;
59766;SDS011;46248;58.364;25.582;2023-01-16T05:12:56;4.60;;;2.75;;
59766;SDS011;46248;58.364;25.582;2023-01-16T05:16:17;7.03;;;3.35;;
59766;SDS011;46248;58.364;25.582;2023-01-16T05:19:39;4.78;;;3.05;;
59766;SDS011;46248;58.364;25.582;2023-01-16T05:23:01;8.27;;;3.90;;
59766;SDS011;46248;58.364;25.582;2023-01-16T05:26:25;7.07;;;3.63;;
59766;SDS011;46248;58.364;25.582;2023-01-16T05:29:47;9.13;;;3.50;;
59766;SDS011;46248;58.364;25.582;2023-01-16T05:33:09;4.50;;;2.50;;
59766;SDS011;46248;58.364;25.582;2023-01-16T05:36:31;5.55;;;3.67;;
59766;SDS011;46248;58.364;25.582;2023-01-16T05:39:53;7.60;;;2.90;;
59766;SDS011;46248;58.364;25.582;2023-01-16T05:43:18;6.05;;;3.08;;
59766;SDS011;46248;58.364;25.582;2023-01-16T05:46:40;8.73;;;3.28;;
59766;SDS011;46248;58.364;25.582;2023-01-16T05:50:02;6.00;;;4.13;;
59766;SDS011;46248;58.364;25.582;2023-01-16T05:53:24;5.80;;;3.60;;
59766;SDS011;46248;58.364;25.582;2023-01-16T05:56:48;7.70;;;3.45;;
59766;SDS011;46248;58.364;25.582;2023-01-16T06:00:12;7.47;;;3.72;;
59766;SDS011;46248;58.364;25.582;2023-01-16T06:03:34;7.53;;;3.95;;
59766;SDS011;46248;58.364;25.582;2023-01-16T06:06:56;8.00;;;3.90;;
59766;SDS011;46248;58.364;25.582;2023-01-16T06:10:18;7.43;;;4.85;;
59766;SDS011;46248;58.364;25.582;2023-01-16T06:13:40;7.57;;;4.43;;
59766;SDS011;46248;58.364;25.582;2023-01-16T06:17:04;6.95;;;3.90;;
59766;SDS011;46248;58.364;25.582;2023-01-16T06:20:26;8.55;;;4.22;;
59766;SDS011;46248;58.364;25.582;2023-01-16T06:23:48;4.13;;;3.58;;
59766;SDS011;46248;58.364;25.582;2023-01-16T06:27:11;9.50;;;5.75;;
59766;SDS011;46248;58.364;25.582;2023-01-16T06:30:32;11.88;;;5.47;;
59766;SDS011;46248;58.364;25.582;2023-01-16T06:33:55;8.70;;;4.72;;
59766;SDS011;46248;58.364;25.582;2023-01-16T06:37:18;12.15;;;5.88;;
59766;SDS011;46248;58.364;25.582;2023-01-16T06:40:39;9.30;;;5.72;;
59766;SDS011;46248;58.364;25.582;2023-01-16T06:44:04;6.93;;;3.95;;
59766;SDS011;46248;58.364;25.582;2023-01-16T06:47:26;6.60;;;4.78;;
59766;SDS011;46248;58.364;25.582;2023-01-16T06:50:51;8.07;;;3.95;;
59766;SDS011;46248;58.364;25.582;2023-01-16T06:54:13;8.77;;;4.68;;
59766;SDS011;46248;58.364;25.582;2023-01-16T06:57:35;9.07;;;5.82;;
59766;SDS011;46248;58.364;25.582;2023-01-16T07:00:58;13.05;;;7.57;;
59766;SDS011;46248;58.364;25.582;2023-01-16T07:04:20;7.95;;;5.15;;
59766;SDS011;46248;58.364;25.582;2023-01-16T07:07:43;10.25;;;6.05;;
59766;SDS011;46248;58.364;25.582;2023-01-16T07:11:05;10.95;;;7.55;;
59766;SDS011;46248;58.364;25.582;2023-01-16T07:14:27;14.13;;;9.10;;
59766;SDS011;46248;58.364;25.582;2023-01-16T07:18:08;24.88;;;14.73;;
59766;SDS011;46248;58.364;25.582;2023-01-16T07:21:50;15.68;;;11.15;;
59766;SDS011;46248;58.364;25.582;2023-01-16T07:25:31;16.30;;;10.88;;
59766;SDS011;46248;58.364;25.582;2023-01-16T07:28:56;14.73;;;8.82;;
59766;SDS011;46248;58.364;25.582;2023-01-16T07:32:19;11.60;;;6.63;;
59766;SDS011;46248;58.364;25.582;2023-01-16T07:35:42;8.45;;;7.32;;
59766;SDS011;46248;58.364;25.582;2023-01-16T07:39:05;8.10;;;7.10;;
59766;SDS011;46248;58.364;25.582;2023-01-16T07:42:29;12.80;;;8.70;;
59766;SDS011;46248;58.364;25.582;2023-01-16T07:45:51;12.75;;;7.15;;
59766;SDS011;46248;58.364;25.582;2023-01-16T07:49:13;9.95;;;7.72;;
59766;SDS011;46248;58.364;25.582;2023-01-16T07:52:35;12.43;;;8.45;;
59766;SDS011;46248;58.364;25.582;2023-01-16T07:55:57;11.20;;;9.63;;
59766;SDS011;46248;58.364;25.582;2023-01-16T07:59:22;8.77;;;6.32;;
59766;SDS011;46248;58.364;25.582;2023-01-16T08:02:43;10.23;;;6.53;;
59766;SDS011;46248;58.364;25.582;2023-01-16T08:06:06;18.80;;;7.45;;
59766;SDS011;46248;58.364;25.582;2023-01-16T08:09:28;11.57;;;6.45;;
59766;SDS011;46248;58.364;25.582;2023-01-16T08:12:50;14.30;;;7.78;;
59766;SDS011;46248;58.364;25.582;2023-01-16T08:16:14;7.20;;;4.72;;
59766;SDS011;46248;58.364;25.582;2023-01-16T08:19:36;8.00;;;3.80;;
59766;SDS011;46248;58.364;25.582;2023-01-16T08:22:57;13.40;;;8.50;;
59766;SDS011;46248;58.364;25.582;2023-01-16T08:26:21;14.20;;;8.27;;
59766;SDS011;46248;58.364;25.582;2023-01-16T08:29:43;8.82;;;5.25;;
59766;SDS011;46248;58.364;25.582;2023-01-16T08:33:06;7.65;;;5.43;;
59766;SDS011;46248;58.364;25.582;2023-01-16T08:36:28;4.95;;;4.18;;
59766;SDS011;46248;58.364;25.582;2023-01-16T08:39:50;6.78;;;4.43;;
59766;SDS011;46248;58.364;25.582;2023-01-16T08:43:12;7.90;;;5.03;;
59766;SDS011;46248;58.364;25.582;2023-01-16T08:46:52;7.13;;;4.28;;
59766;SDS011;46248;58.364;25.582;2023-01-16T08:50:37;10.02;;;4.97;;
59766;SDS011;46248;58.364;25.582;2023-01-16T08:54:27;10.10;;;5.82;;
59766;SDS011;46248;58.364;25.582;2023-01-16T08:57:49;10.70;;;5.50;;
59766;SDS011;46248;58.364;25.582;2023-01-16T09:01:11;12.02;;;6.28;;
59766;SDS011;46248;58.364;25.582;2023-01-16T09:04:34;10.23;;;5.63;;
59766;SDS011;46248;58.364;25.582;2023-01-16T09:07:57;8.90;;;5.07;;
59766;SDS011;46248;58.364;25.582;2023-01-16T09:11:19;7.05;;;4.50;;
59766;SDS011;46248;58.364;25.582;2023-01-16T09:14:59;14.48;;;7.60;;
59766;SDS011;46248;58.364;25.582;2023-01-16T09:18:21;39.70;;;15.95;;
59766;SDS011;46248;58.364;25.582;2023-01-16T09:21:42;32.35;;;12.60;;
59766;SDS011;46248;58.364;25.582;2023-01-16T09:25:06;74.20;;;22.00;;
59766;SDS011;46248;58.364;25.582;2023-01-16T09:28:28;26.67;;;11.00;;
59766;SDS011;46248;58.364;25.582;2023-01-16T09:31:50;45.53;;;16.75;;
59766;SDS011;46248;58.364;25.582;2023-01-16T09:35:12;79.45;;;30.27;;
59766;SDS011;46248;58.364;25.582;2023-01-16T09:38:34;13.57;;;9.88;;
59766;SDS011;46248;58.364;25.582;2023-01-16T09:42:02;12.93;;;10.98;;
59766;SDS011;46248;58.364;25.582;2023-01-16T09:45:53;6.45;;;4.38;;
59766;SDS011;46248;58.364;25.582;2023-01-16T09:49:21;8.43;;;3.75;;
59766;SDS011;46248;58.364;25.582;2023-01-16T09:52:47;7.05;;;4.22;;
59766;SDS011;46248;58.364;25.582;2023-01-16T09:56:26;5.80;;;3.08;;
59766;SDS011;46248;58.364;25.582;2023-01-16T10:00:10;14.45;;;3.78;;
59766;SDS011;46248;58.364;25.582;2023-01-16T10:03:36;9.10;;;5.75;;
59766;SDS011;46248;58.364;25.582;2023-01-16T10:07:07;10.15;;;7.28;;
59766;SDS011;46248;58.364;25.582;2023-01-16T10:10:45;9.93;;;5.68;;
59766;SDS011;46248;58.364;25.582;2023-01-16T10:14:23;8.77;;;5.47;;
59766;SDS011;46248;58.364;25.582;2023-01-16T10:18:01;14.68;;;8.60;;
59766;SDS011;46248;58.364;25.582;2023-01-16T10:22:00;9.73;;;4.47;;
59766;SDS011;46248;58.364;25.582;2023-01-16T10:25:29;10.80;;;5.95;;
59766;SDS011;46248;58.364;25.582;2023-01-16T10:29:01;5.15;;;3.10;;
59766;SDS011;46248;58.364;25.582;2023-01-16T10:32:36;11.82;;;5.47;;
59766;SDS011;46248;58.364;25.582;2023-01-16T10:36:06;13.02;;;4.60;;
59766;SDS011;46248;58.364;25.582;2023-01-16T10:39:34;6.60;;;3.10;;
59766;SDS011;46248;58.364;25.582;2023-01-16T10:43:00;4.78;;;2.38;;
59766;SDS011;46248;58.364;25.582;2023-01-16T10:46:43;7.45;;;3.60;;
59766;SDS011;46248;58.364;25.582;2023-01-16T10:50:23;7.90;;;3.05;;
59766;SDS011;46248;58.364;25.582;2023-01-16T10:53:57;6.53;;;2.53;;
59766;SDS011;46248;58.364;25.582;2023-01-16T10:57:20;7.47;;;3.13;;
59766;SDS011;46248;58.364;25.582;2023-01-16T11:00:42;13.35;;;4.38;;
59766;SDS011;46248;58.364;25.582;2023-01-16T11:04:05;9.73;;;5.20;;
59766;SDS011;46248;58.364;25.582;2023-01-16T11:07:30;9.68;;;3.50;;
59766;SDS011;46248;58.364;25.582;2023-01-16T11:10:56;4.95;;;2.00;;
59766;SDS011;46248;58.364;25.582;2023-01-16T11:14:19;4.60;;;1.70;;
59766;SDS011;46248;58.364;25.582;2023-01-16T11:18:07;5.57;;;2.40;;
59766;SDS011;46248;58.364;25.582;2023-01-16T11:21:50;5.07;;;1.88;;
59766;SDS011;46248;58.364;25.582;2023-01-16T11:25:17;7.93;;;3.60;;
59766;SDS011;46248;58.364;25.582;2023-01-16T11:28:43;7.82;;;2.60;;
59766;SDS011;46248;58.364;25.582;2023-01-16T11:32:09;4.15;;;2.30;;
59766;SDS011;46248;58.364;25.582;2023-01-16T11:35:34;9.05;;;2.85;;
59766;SDS011;46248;58.364;25.582;2023-01-16T11:38:57;5.28;;;2.38;;
59766;SDS011;46248;58.364;25.582;2023-01-16T11:42:20;10.68;;;3.65;;
59766;SDS011;46248;58.364;25.582;2023-01-16T11:46:04;5.45;;;2.90;;
59766;SDS011;46248;58.364;25.582;2023-01-16T11:49:33;4.75;;;3.20;;
59766;SDS011;46248;58.364;25.582;2023-01-16T11:52:56;5.15;;;2.90;;
59766;SDS011;46248;58.364;25.582;2023-01-16T11:56:23;4.60;;;3.20;;
59766;SDS011;46248;58.364;25.582;2023-01-16T12:00:16;4.38;;;3.30;;
59766;SDS011;46248;58.364;25.582;2023-01-16T12:04:00;4.95;;;3.70;;
59766;SDS011;46248;58.364;25.582;2023-01-16T12:07:30;4.25;;;3.15;;
59766;SDS011;46248;58.364;25.582;2023-01-16T12:11:03;5.43;;;1.90;;
59766;SDS011;46248;58.364;25.582;2023-01-16T12:14:28;7.88;;;3.17;;
59766;SDS011;46248;58.364;25.582;2023-01-16T12:18:03;4.97;;;2.65;;
59766;SDS011;46248;58.364;25.582;2023-01-16T12:21:34;5.72;;;2.30;;
59766;SDS011;46248;58.364;25.582;2023-01-16T12:25:05;4.05;;;2.25;;
59766;SDS011;46248;58.364;25.582;2023-01-16T12:28:42;7.10;;;2.92;;
59766;SDS011;46248;58.364;25.582;2023-01-16T12:32:20;7.03;;;2.55;;
59766;SDS011;46248;58.364;25.582;2023-01-16T12:35:54;3.83;;;1.90;;
59766;SDS011;46248;58.364;25.582;2023-01-16T12:39:24;8.20;;;2.88;;
59766;SDS011;46248;58.364;25.582;2023-01-16T12:42:57;9.38;;;2.53;;
59766;SDS011;46248;58.364;25.582;2023-01-16T12:46:41;3.38;;;1.80;;
59766;SDS011;46248;58.364;25.582;2023-01-16T12:50:17;3.83;;;1.80;;
59766;SDS011;46248;58.364;25.582;2023-01-16T12:54:12;4.15;;;1.75;;
59766;SDS011;46248;58.364;25.582;2023-01-16T12:57:52;5.50;;;1.95;;
59766;SDS011;46248;58.364;25.582;2023-01-16T13:01:24;3.83;;;2.10;;
59766;SDS011;46248;58.364;25.582;2023-01-16T13:04:49;3.97;;;2.00;;
59766;SDS011;46248;58.364;25.582;2023-01-16T13:08:17;4.05;;;1.60;;
59766;SDS011;46248;58.364;25.582;2023-01-16T13:11:54;4.97;;;1.52;;
59766;SDS011;46248;58.364;25.582;2023-01-16T13:15:42;5.43;;;2.15;;
59766;SDS011;46248;58.364;25.582;2023-01-16T13:19:09;2.83;;;1.52;;
59766;SDS011;46248;58.364;25.582;2023-01-16T13:22:38;5.38;;;2.03;;
59766;SDS011;46248;58.364;25.582;2023-01-16T13:26:08;4.88;;;1.65;;
59766;SDS011;46248;58.364;25.582;2023-01-16T13:29:33;4.22;;;2.05;;
59766;SDS011;46248;58.364;25.582;2023-01-16T13:32:59;7.05;;;2.53;;
59766;SDS011;46248;58.364;25.582;2023-01-16T13:40:29;8.35;;;1.92;;
59766;SDS011;46248;58.364;25.582;2023-01-16T13:43:59;3.15;;;1.88;;
59766;SDS011;46248;58.364;25.582;2023-01-16T13:47:44;6.07;;;2.15;;
59766;SDS011;46248;58.364;25.582;2023-01-16T13:51:11;6.30;;;2.78;;
59766;SDS011;46248;58.364;25.582;2023-01-16T13:54:36;4.00;;;2.08;;
59766;SDS011;46248;58.364;25.582;2023-01-16T13:58:06;7.35;;;2.45;;
59766;SDS011;46248;58.364;25.582;2023-01-16T14:01:34;5.00;;;2.30;;
59766;SDS011;46248;58.364;25.582;2023-01-16T14:09:18;7.95;;;2.33;;
59766;SDS011;46248;58.364;25.582;2023-01-16T14:12:43;4.03;;;1.45;;
59766;SDS011;46248;58.364;25.582;2023-01-16T14:16:31;3.15;;;1.80;;
59766;SDS011;46248;58.364;25.582;2023-01-16T14:19:59;4.10;;;1.95;;
59766;SDS011;46248;58.364;25.582;2023-01-16T14:23:23;6.90;;;2.10;;
59766;SDS011;46248;58.364;25.582;2023-01-16T14:27:05;7.15;;;1.70;;
59766;SDS011;46248;58.364;25.582;2023-01-16T14:30:32;4.75;;;2.05;;
59766;SDS011;46248;58.364;25.582;2023-01-16T14:33:55;5.82;;;2.42;;
59766;SDS011;46248;58.364;25.582;2023-01-16T14:37:20;5.90;;;2.45;;
59766;SDS011;46248;58.364;25.582;2023-01-16T14:40:48;5.05;;;2.30;;
59766;SDS011;46248;58.364;25.582;2023-01-16T14:44:34;9.43;;;2.63;;
59766;SDS011;46248;58.364;25.582;2023-01-16T14:48:37;4.13;;;2.50;;
59766;SDS011;46248;58.364;25.582;2023-01-16T14:52:17;5.55;;;3.42;;
59766;SDS011;46248;58.364;25.582;2023-01-16T14:55:57;9.10;;;3.08;;
59766;SDS011;46248;58.364;25.582;2023-01-16T14:59:24;19.58;;;12.20;;
59766;SDS011;46248;58.364;25.582;2023-01-16T15:02:51;25.98;;;16.95;;
59766;SDS011;46248;58.364;25.582;2023-01-16T15:06:22;19.75;;;16.52;;
59766;SDS011;46248;58.364;25.582;2023-01-16T15:09:45;7.72;;;3.83;;
59766;SDS011;46248;58.364;25.582;2023-01-16T15:13:13;6.40;;;4.68;;
59766;SDS011;46248;58.364;25.582;2023-01-16T15:16:39;6.70;;;3.33;;
59766;SDS011;46248;58.364;25.582;2023-01-16T15:20:22;5.00;;;2.72;;
59766;SDS011;46248;58.364;25.582;2023-01-16T15:24:03;8.30;;;3.47;;
59766;SDS011;46248;58.364;25.582;2023-01-16T15:27:27;7.63;;;3.40;;
59766;SDS011;46248;58.364;25.582;2023-01-16T15:30:53;4.70;;;2.85;;
59766;SDS011;46248;58.364;25.582;2023-01-16T15:34:21;6.85;;;3.13;;
59766;SDS011;46248;58.364;25.582;2023-01-16T15:37:48;5.40;;;3.05;;
59766;SDS011;46248;58.364;25.582;2023-01-16T15:41:12;8.73;;;3.70;;
59766;SDS011;46248;58.364;25.582;2023-01-16T15:44:36;2.67;;;2.20;;
59766;SDS011;46248;58.364;25.582;2023-01-16T15:52:01;6.95;;;4.47;;
59766;SDS011;46248;58.364;25.582;2023-01-16T15:55:25;10.40;;;5.38;;
59766;SDS011;46248;58.364;25.582;2023-01-16T15:58:50;8.98;;;4.20;;
59766;SDS011;46248;58.364;25.582;2023-01-16T16:02:16;6.85;;;4.38;;
59766;SDS011;46248;58.364;25.582;2023-01-16T16:05:39;6.85;;;3.08;;
59766;SDS011;46248;58.364;25.582;2023-01-16T16:09:03;6.55;;;3.20;;
59766;SDS011;46248;58.364;25.582;2023-01-16T16:12:27;4.57;;;2.42;;
59766;SDS011;46248;58.364;25.582;2023-01-16T16:15:54;6.32;;;3.10;;
59766;SDS011;46248;58.364;25.582;2023-01-16T16:19:35;4.40;;;2.53;;
59766;SDS011;46248;58.364;25.582;2023-01-16T16:23:00;8.05;;;3.17;;
59766;SDS011;46248;58.364;25.582;2023-01-16T16:26:24;8.55;;;3.75;;
59766;SDS011;46248;58.364;25.582;2023-01-16T16:29:51;6.47;;;3.60;;
59766;SDS011;46248;58.364;25.582;2023-01-16T16:33:15;12.32;;;5.85;;
59766;SDS011;46248;58.364;25.582;2023-01-16T16:36:38;5.85;;;3.15;;
59766;SDS011;46248;58.364;25.582;2023-01-16T16:40:06;6.90;;;2.95;;
59766;SDS011;46248;58.364;25.582;2023-01-16T16:43:41;5.07;;;2.95;;
59766;SDS011;46248;58.364;25.582;2023-01-16T16:47:15;7.72;;;3.33;;
59766;SDS011;46248;58.364;25.582;2023-01-16T16:50:44;4.97;;;3.33;;
59766;SDS011;46248;58.364;25.582;2023-01-16T16:54:08;11.05;;;3.72;;
59766;SDS011;46248;58.364;25.582;2023-01-16T16:57:39;5.80;;;3.45;;
59766;SDS011;46248;58.364;25.582;2023-01-16T17:04:26;4.55;;;2.35;;
59766;SDS011;46248;58.364;25.582;2023-01-16T17:07:48;5.38;;;3.15;;
59766;SDS011;46248;58.364;25.582;2023-01-16T17:11:10;2.53;;;2.17;;
59766;SDS011;46248;58.364;25.582;2023-01-16T17:14:33;6.88;;;3.00;;
59766;SDS011;46248;58.364;25.582;2023-01-16T17:17:55;7.68;;;2.42;;
59766;SDS011;46248;58.364;25.582;2023-01-16T17:21:19;5.03;;;2.40;;
59766;SDS011;46248;58.364;25.582;2023-01-16T17:24:41;10.30;;;7.82;;
59766;SDS011;46248;58.364;25.582;2023-01-16T17:28:03;6.95;;;3.83;;
59766;SDS011;46248;58.364;25.582;2023-01-16T17:31:25;8.13;;;4.80;;
59766;SDS011;46248;58.364;25.582;2023-01-16T17:34:47;7.88;;;3.60;;
59766;SDS011;46248;58.364;25.582;2023-01-16T17:38:11;8.35;;;5.45;;
59766;SDS011;46248;58.364;25.582;2023-01-16T17:41:35;12.38;;;4.72;;
59766;SDS011;46248;58.364;25.582;2023-01-16T17:45:22;10.50;;;6.13;;
59766;SDS011;46248;58.364;25.582;2023-01-16T17:49:09;8.55;;;4.93;;
59766;SDS011;46248;58.364;25.582;2023-01-16T17:52:31;12.63;;;8.60;;
59766;SDS011;46248;58.364;25.582;2023-01-16T17:55:55;28.80;;;12.30;;
59766;SDS011;46248;58.364;25.582;2023-01-16T17:59:18;115.75;;;47.08;;
59766;SDS011;46248;58.364;25.582;2023-01-16T18:02:40;35.40;;;18.83;;
59766;SDS011;46248;58.364;25.582;2023-01-16T18:06:02;19.23;;;13.55;;
59766;SDS011;46248;58.364;25.582;2023-01-16T18:09:26;11.20;;;9.77;;
59766;SDS011;46248;58.364;25.582;2023-01-16T18:12:52;12.98;;;11.40;;
59766;SDS011;46248;58.364;25.582;2023-01-16T18:16:31;18.60;;;9.38;;
59766;SDS011;46248;58.364;25.582;2023-01-16T18:20:11;14.30;;;8.50;;
59766;SDS011;46248;58.364;25.582;2023-01-16T18:23:33;15.65;;;9.00;;
59766;SDS011;46248;58.364;25.582;2023-01-16T18:26:55;11.82;;;6.50;;
59766;SDS011;46248;58.364;25.582;2023-01-16T18:30:18;24.83;;;14.25;;
59766;SDS011;46248;58.364;25.582;2023-01-16T18:33:40;19.73;;;11.10;;
59766;SDS011;46248;58.364;25.582;2023-01-16T18:37:03;12.27;;;9.80;;
59766;SDS011;46248;58.364;25.582;2023-01-16T18:40:25;25.13;;;15.05;;
59766;SDS011;46248;58.364;25.582;2023-01-16T18:47:56;26.85;;;13.25;;
59766;SDS011;46248;58.364;25.582;2023-01-16T18:51:35;24.52;;;11.63;;
59766;SDS011;46248;58.364;25.582;2023-01-16T18:55:15;16.55;;;10.45;;
59766;SDS011;46248;58.364;25.582;2023-01-16T18:58:54;14.75;;;10.00;;
59766;SDS011;46248;58.364;25.582;2023-01-16T19:02:41;10.85;;;8.73;;
59766;SDS011;46248;58.364;25.582;2023-01-16T19:06:06;9.00;;;5.70;;
59766;SDS011;46248;58.364;25.582;2023-01-16T19:09:28;7.60;;;5.28;;
59766;SDS011;46248;58.364;25.582;2023-01-16T19:12:51;9.88;;;6.25;;
59766;SDS011;46248;58.364;25.582;2023-01-16T19:16:13;12.23;;;9.25;;
59766;SDS011;46248;58.364;25.582;2023-01-16T19:19:53;12.13;;;8.13;;
59766;SDS011;46248;58.364;25.582;2023-01-16T19:23:17;11.95;;;7.35;;
59766;SDS011;46248;58.364;25.582;2023-01-16T19:26:39;15.82;;;11.60;;
59766;SDS011;46248;58.364;25.582;2023-01-16T19:30:04;14.45;;;9.90;;
59766;SDS011;46248;58.364;25.582;2023-01-16T19:33:27;16.33;;;10.20;;
59766;SDS011;46248;58.364;25.582;2023-01-16T19:36:51;11.27;;;9.30;;
59766;SDS011;46248;58.364;25.582;2023-01-16T19:40:15;24.35;;;14.90;;
59766;SDS011;46248;58.364;25.582;2023-01-16T19:43:38;23.75;;;13.85;;
59766;SDS011;46248;58.364;25.582;2023-01-16T19:47:17;10.80;;;5.55;;
59766;SDS011;46248;58.364;25.582;2023-01-16T19:50:40;6.57;;;3.88;;
59766;SDS011;46248;58.364;25.582;2023-01-16T19:54:02;6.32;;;3.55;;
59766;SDS011;46248;58.364;25.582;2023-01-16T19:57:26;5.10;;;3.92;;
59766;SDS011;46248;58.364;25.582;2023-01-16T20:00:48;7.15;;;3.72;;
59766;SDS011;46248;58.364;25.582;2023-01-16T20:04:22;10.80;;;4.15;;
59766;SDS011;46248;58.364;25.582;2023-01-16T20:07:44;12.82;;;5.03;;
59766;SDS011;46248;58.364;25.582;2023-01-16T20:11:08;6.05;;;4.15;;
59766;SDS011;46248;58.364;25.582;2023-01-16T20:14:31;7.80;;;4.85;;
59766;SDS011;46248;58.364;25.582;2023-01-16T20:17:53;8.20;;;4.78;;
59766;SDS011;46248;58.364;25.582;2023-01-16T20:21:15;8.77;;;4.38;;
59766;SDS011;46248;58.364;25.582;2023-01-16T20:24:38;17.77;;;5.85;;
59766;SDS011;46248;58.364;25.582;2023-01-16T20:28:00;8.88;;;5.55;;
59766;SDS011;46248;58.364;25.582;2023-01-16T20:31:23;5.43;;;3.97;;
59766;SDS011;46248;58.364;25.582;2023-01-16T20:34:45;9.70;;;5.32;;
59766;SDS011;46248;58.364;25.582;2023-01-16T20:38:08;5.88;;;3.80;;
59766;SDS011;46248;58.364;25.582;2023-01-16T20:41:30;8.23;;;3.75;;
59766;SDS011;46248;58.364;25.582;2023-01-16T20:45:12;4.85;;;3.63;;
59766;SDS011;46248;58.364;25.582;2023-01-16T20:52:16;7.15;;;3.80;;